Time;durP1;ratioP1;P1;durP2;ratioP2;P2;SDS_P1;SDS_P2;PMS_P1;PMS_P2;Temp;Humidity;BMP_temperature;BMP_pressure;BME280_temperature;BME280_humidity;BME280_pressure;Samples;Min_cycle;Max_cycle;Signal;HPM_P1;HPM_P2
2022/09/23 00:00:13;;;;;;;5.00;4.60;;;;;;;;;;5083017;28;20048;-70
2022/09/23 00:02:41;;;;;;;4.88;4.35;;;;;;;;;;5058687;28;20043;-70
2022/09/23 00:05:09;;;;;;;6.18;4.57;;;;;;;;;;5076812;28;20392;-70
2022/09/23 00:07:37;;;;;;;5.00;4.50;;;;;;;;;;5062006;28;20130;-69
2022/09/23 00:10:05;;;;;;;5.55;5.05;;;;;;;;;;5058469;28;20036;-70
2022/09/23 00:12:33;;;;;;;4.65;4.13;;;;;;;;;;5081775;28;20572;-69
2022/09/23 00:15:00;;;;;;;5.25;4.75;;;;;;;;;;5070870;28;20048;-69
2022/09/23 00:17:28;;;;;;;5.50;5.10;;;;;;;;;;5059903;28;20079;-69
2022/09/23 00:19:56;;;;;;;5.20;4.07;;;;;;;;;;5081757;28;20071;-70
2022/09/23 00:22:23;;;;;;;5.35;4.60;;;;;;;;;;5066786;28;20503;-70
2022/09/23 00:24:51;;;;;;;5.00;4.60;;;;;;;;;;5077592;28;20504;-70
2022/09/23 00:27:20;;;;;;;4.68;4.38;;;;;;;;;;5080790;28;20043;-69
2022/09/23 00:29:48;;;;;;;4.93;4.53;;;;;;;;;;5061515;28;20043;-70
2022/09/23 00:32:15;;;;;;;5.00;4.60;;;;;;;;;;5077075;28;20044;-70
2022/09/23 00:34:43;;;;;;;4.97;4.55;;;;;;;;;;5076822;28;20032;-70
2022/09/23 00:37:11;;;;;;;5.82;5.30;;;;;;;;;;5081196;28;20036;-69
2022/09/23 00:39:38;;;;;;;5.90;5.40;;;;;;;;;;5071720;28;20166;-70
2022/09/23 00:42:06;;;;;;;22.40;5.75;;;;;;;;;;5074061;28;20041;-70
2022/09/23 00:44:45;;;;;;;6.25;5.65;;;;;;;;;;5068872;28;20481;-70
2022/09/23 00:47:14;;;;;;;7.38;5.50;;;;;;;;;;5079332;28;20499;-70
2022/09/23 00:49:42;;;;;;;5.70;5.15;;;;;;;;;;5077623;28;20039;-70
2022/09/23 00:52:12;;;;;;;8.50;6.20;;;;;;;;;;5075217;28;20067;-70
2022/09/23 00:54:39;;;;;;;6.22;5.63;;;;;;;;;;5074694;28;20062;-70
2022/09/23 00:57:07;;;;;;;6.20;5.60;;;;;;;;;;5084492;28;20491;-70
2022/09/23 00:59:35;;;;;;;6.07;5.47;;;;;;;;;;5063272;28;20480;-70
2022/09/23 01:02:03;;;;;;;6.43;5.82;;;;;;;;;;5078824;28;20949;-70
2022/09/23 01:04:31;;;;;;;6.68;5.22;;;;;;;;;;5071601;28;20036;-70
2022/09/23 01:06:58;;;;;;;5.47;5.07;;;;;;;;;;5081537;28;20109;-70
2022/09/23 01:09:26;;;;;;;6.05;5.28;;;;;;;;;;5075570;28;20301;-70
2022/09/23 01:12:11;;;;;;;5.43;4.93;;;;;;;;;;5085492;28;20082;-70
2022/09/23 01:14:39;;;;;;;5.55;5.15;;;;;;;;;;5079920;28;20033;-70
2022/09/23 01:17:06;;;;;;;5.13;4.63;;;;;;;;;;5082446;28;20055;-70
2022/09/23 01:19:45;;;;;;;6.25;5.65;;;;;;;;;;5077949;28;20036;-69
2022/09/23 01:22:20;;;;;;;5.72;5.32;;;;;;;;;;5083387;28;20036;-70
2022/09/23 01:24:48;;;;;;;5.88;5.47;;;;;;;;;;5083252;28;20040;-70
2022/09/23 01:27:38;;;;;;;5.50;5.00;;;;;;;;;;5084055;28;20119;-70
2022/09/23 01:30:10;;;;;;;6.97;6.05;;;;;;;;;;5081514;28;20055;-70
2022/09/23 01:32:58;;;;;;;10.15;5.65;;;;;;;;;;5076931;28;20054;-69
2022/09/23 01:35:34;;;;;;;7.10;6.32;;;;;;;;;;5064507;28;20040;-70
2022/09/23 01:38:11;;;;;;;8.48;7.57;;;;;;;;;;5082999;28;20039;-70
2022/09/23 01:40:49;;;;;;;9.98;7.85;;;;;;;;;;5081193;28;20036;-69
2022/09/23 01:43:25;;;;;;;22.10;7.35;;;;;;;;;;5082192;28;20045;-69
2022/09/23 01:45:55;;;;;;;15.38;7.90;;;;;;;;;;5082667;28;20040;-71
2022/09/23 01:48:28;;;;;;;15.88;7.38;;;;;;;;;;5076810;28;20129;-70
2022/09/23 01:51:00;;;;;;;9.25;8.38;;;;;;;;;;5083827;28;20123;-70
2022/09/23 01:53:41;;;;;;;11.45;6.88;;;;;;;;;;5082075;28;20048;-70
2022/09/23 01:56:26;;;;;;;18.20;6.80;;;;;;;;;;5064178;28;20040;-70
2022/09/23 01:59:05;;;;;;;28.30;6.53;;;;;;;;;;5081231;28;20793;-70
2022/09/23 02:01:51;;;;;;;15.75;6.53;;;;;;;;;;5074653;28;20062;-70
2022/09/23 02:04:22;;;;;;;23.20;5.40;;;;;;;;;;5076939;28;20055;-70
2022/09/23 02:06:54;;;;;;;6.80;6.22;;;;;;;;;;5063897;28;20048;-69
2022/09/23 02:09:23;;;;;;;7.00;6.30;;;;;;;;;;5080616;28;20043;-70
2022/09/23 02:11:52;;;;;;;14.32;6.15;;;;;;;;;;5081825;28;20151;-69
2022/09/23 02:14:38;;;;;;;5.82;5.22;;;;;;;;;;5082109;28;20044;-70
2022/09/23 02:17:08;;;;;;;5.80;5.40;;;;;;;;;;5078764;28;20044;-69
2022/09/23 02:19:40;;;;;;;8.43;5.38;;;;;;;;;;5081545;28;20537;-70
2022/09/23 02:22:09;;;;;;;7.00;6.40;;;;;;;;;;5077581;28;20044;-70
2022/09/23 02:24:37;;;;;;;6.05;5.63;;;;;;;;;;5082215;28;20811;-70
2022/09/23 02:27:30;;;;;;;9.30;5.80;;;;;;;;;;5082141;28;20044;-70
2022/09/23 02:30:08;;;;;;;6.97;6.13;;;;;;;;;;5059858;28;20044;-69
2022/09/23 02:32:52;;;;;;;7.55;6.85;;;;;;;;;;5078730;28;20043;-70
2022/09/23 02:35:47;;;;;;;7.28;5.88;;;;;;;;;;5060654;28;20062;-70
2022/09/23 02:38:34;;;;;;;9.75;7.22;;;;;;;;;;5075609;28;20699;-70
2022/09/23 02:41:10;;;;;;;7.03;6.32;;;;;;;;;;5080108;28;20123;-70
2022/09/23 02:43:50;;;;;;;7.50;6.80;;;;;;;;;;5081652;28;20036;-70
2022/09/23 02:46:17;;;;;;;7.10;6.40;;;;;;;;;;5080333;28;20434;-69
2022/09/23 02:48:48;;;;;;;6.88;6.28;;;;;;;;;;5080342;28;20040;-70
2022/09/23 02:51:15;;;;;;;12.63;6.95;;;;;;;;;;5064789;28;20044;-70
2022/09/23 02:53:44;;;;;;;8.90;6.80;;;;;;;;;;5063723;28;20046;-69
2022/09/23 02:56:16;;;;;;;6.65;5.93;;;;;;;;;;5080923;28;20036;-69
2022/09/23 02:58:45;;;;;;;7.07;5.78;;;;;;;;;;5085538;28;20055;-70
2022/09/23 03:01:14;;;;;;;9.55;5.30;;;;;;;;;;5084090;28;20036;-70
2022/09/23 03:03:45;;;;;;;8.60;5.55;;;;;;;;;;5080977;28;20407;-70
2022/09/23 03:06:23;;;;;;;12.77;5.57;;;;;;;;;;5079964;28;20047;-70
2022/09/23 03:08:54;;;;;;;28.52;5.90;;;;;;;;;;5083557;28;20147;-70
2022/09/23 03:11:23;;;;;;;6.03;5.43;;;;;;;;;;5062996;28;20400;-70
2022/09/23 03:13:53;;;;;;;6.70;6.05;;;;;;;;;;5072063;28;20491;-69
2022/09/23 03:16:42;;;;;;;11.65;5.93;;;;;;;;;;5077120;28;20036;-69
2022/09/23 03:19:11;;;;;;;18.90;5.88;;;;;;;;;;5084003;28;20051;-70
2022/09/23 03:21:44;;;;;;;12.32;4.80;;;;;;;;;;5083475;28;20032;-70
2022/09/23 03:24:13;;;;;;;5.60;4.63;;;;;;;;;;5086465;28;20054;-70
2022/09/23 03:26:43;;;;;;;9.98;6.40;;;;;;;;;;5064980;28;20432;-70
2022/09/23 03:29:11;;;;;;;12.30;5.95;;;;;;;;;;5077706;28;20561;-70
2022/09/23 03:31:41;;;;;;;6.63;5.60;;;;;;;;;;5081268;28;20048;-70
2022/09/23 03:34:17;;;;;;;40.30;6.25;;;;;;;;;;5063610;28;20522;-70
2022/09/23 03:36:59;;;;;;;30.23;7.05;;;;;;;;;;5075833;28;20142;-70
2022/09/23 03:39:29;;;;;;;36.05;5.70;;;;;;;;;;5083347;28;20037;-69
2022/09/23 03:41:58;;;;;;;24.70;6.60;;;;;;;;;;5082919;28;20048;-70
2022/09/23 03:44:28;;;;;;;20.38;6.18;;;;;;;;;;5080886;28;20563;-70
2022/09/23 03:46:58;;;;;;;33.00;5.93;;;;;;;;;;5078658;28;20032;-70
2022/09/23 03:49:27;;;;;;;6.80;6.10;;;;;;;;;;5082272;28;20383;-69
2022/09/23 03:51:55;;;;;;;25.73;6.03;;;;;;;;;;5078421;28;20499;-70
2022/09/23 03:54:22;;;;;;;6.22;5.63;;;;;;;;;;5079336;28;20048;-69
2022/09/23 03:56:49;;;;;;;10.02;5.78;;;;;;;;;;5075692;28;20495;-66
2022/09/23 03:59:17;;;;;;;10.40;6.13;;;;;;;;;;5078906;28;20496;-69
2022/09/23 04:01:45;;;;;;;10.32;6.22;;;;;;;;;;5081000;28;20048;-69
2022/09/23 04:04:12;;;;;;;8.07;6.38;;;;;;;;;;5082302;28;20125;-68
2022/09/23 04:06:39;;;;;;;12.75;4.60;;;;;;;;;;5084509;28;20094;-70
2022/09/23 04:09:07;;;;;;;12.18;4.57;;;;;;;;;;5085455;28;20127;-69
2022/09/23 04:11:35;;;;;;;5.07;4.15;;;;;;;;;;5087441;28;20105;-70
2022/09/23 04:14:02;;;;;;;10.63;4.90;;;;;;;;;;5065847;28;20293;-69
2022/09/23 04:16:29;;;;;;;10.50;4.85;;;;;;;;;;5081576;28;20040;-70
2022/09/23 04:18:57;;;;;;;6.22;3.78;;;;;;;;;;5087209;28;20054;-69
2022/09/23 04:21:25;;;;;;;5.47;4.95;;;;;;;;;;5084865;28;20032;-70
2022/09/23 04:23:53;;;;;;;7.95;4.05;;;;;;;;;;5087364;28;20038;-70
2022/09/23 04:26:20;;;;;;;14.32;4.63;;;;;;;;;;5084824;28;20490;-70
2022/09/23 04:28:47;;;;;;;9.68;4.47;;;;;;;;;;5084608;28;20525;-69
2022/09/23 04:31:14;;;;;;;10.65;4.38;;;;;;;;;;5066519;28;20121;-70
2022/09/23 04:33:42;;;;;;;10.50;4.80;;;;;;;;;;5086943;28;20048;-70
2022/09/23 04:36:09;;;;;;;8.45;5.50;;;;;;;;;;5061179;28;20044;-70
2022/09/23 04:38:36;;;;;;;6.25;5.68;;;;;;;;;;5086150;28;20036;-70
2022/09/23 04:41:07;;;;;;;12.75;5.78;;;;;;;;;;5086872;28;20051;-69
2022/09/23 04:43:35;;;;;;;9.70;6.35;;;;;;;;;;5082145;28;20043;-70
2022/09/23 04:46:03;;;;;;;18.95;6.07;;;;;;;;;;5077346;28;20083;-69
2022/09/23 04:48:31;;;;;;;9.75;6.40;;;;;;;;;;5078044;28;20039;-70
2022/09/23 04:51:09;;;;;;;16.17;6.63;;;;;;;;;;5061479;28;20149;-69
2022/09/23 04:53:37;;;;;;;9.20;6.25;;;;;;;;;;5080424;28;20040;-70
2022/09/23 04:56:05;;;;;;;12.15;5.82;;;;;;;;;;5083339;28;20101;-70
2022/09/23 04:58:33;;;;;;;15.50;6.15;;;;;;;;;;5077521;28;20048;-70
2022/09/23 05:01:12;;;;;;;14.73;6.80;;;;;;;;;;5078915;28;20048;-69
2022/09/23 05:03:40;;;;;;;7.07;5.25;;;;;;;;;;5078170;28;20558;-70
2022/09/23 05:06:07;;;;;;;9.60;6.15;;;;;;;;;;5059206;28;20097;-69
2022/09/23 05:08:35;;;;;;;14.38;6.22;;;;;;;;;;5081708;28;20520;-70
2022/09/23 05:11:03;;;;;;;7.47;5.80;;;;;;;;;;5082339;28;20044;-69
2022/09/23 05:13:31;;;;;;;20.88;5.78;;;;;;;;;;5082738;28;20048;-70
2022/09/23 05:16:00;;;;;;;12.38;6.50;;;;;;;;;;5083087;28;20097;-69
2022/09/23 05:18:28;;;;;;;8.00;5.10;;;;;;;;;;5062291;28;20036;-69
2022/09/23 05:20:56;;;;;;;6.97;4.80;;;;;;;;;;5079870;28;20134;-70
2022/09/23 05:23:23;;;;;;;13.73;5.85;;;;;;;;;;5081740;28;20047;-70
2022/09/23 05:25:57;;;;;;;22.20;6.80;;;;;;;;;;5082929;28;20058;-69
2022/09/23 05:28:26;;;;;;;23.95;7.97;;;;;;;;;;5059518;28;20392;-69
2022/09/23 05:31:01;;;;;;;32.63;7.38;;;;;;;;;;5064236;28;20101;-69
2022/09/23 05:33:29;;;;;;;20.88;7.28;;;;;;;;;;5058526;28;20501;-69
2022/09/23 05:35:56;;;;;;;15.02;7.82;;;;;;;;;;5074930;28;20216;-69
2022/09/23 05:38:24;;;;;;;16.88;7.20;;;;;;;;;;5139896;22;20055;-72
2022/09/23 05:40:55;;;;;;;19.45;7.55;;;;;;;;;;5101049;28;20069;-73
2022/09/23 05:43:23;;;;;;;17.10;6.50;;;;;;;;;;5103322;28;20036;-73
2022/09/23 05:45:51;;;;;;;13.23;7.13;;;;;;;;;;5098275;28;20048;-73
2022/09/23 05:48:18;;;;;;;20.23;8.27;;;;;;;;;;5094123;28;20055;-73
2022/09/23 05:50:49;;;;;;;21.92;7.57;;;;;;;;;;5098986;28;20044;-73
2022/09/23 05:53:17;;;;;;;18.83;8.40;;;;;;;;;;5097686;28;20039;-73
2022/09/23 05:55:44;;;;;;;15.15;7.38;;;;;;;;;;5099205;28;20044;-73
2022/09/23 05:58:12;;;;;;;12.02;5.80;;;;;;;;;;5099559;28;20375;-73
2022/09/23 06:00:40;;;;;;;34.38;6.05;;;;;;;;;;5098161;28;20407;-73
2022/09/23 06:03:13;;;;;;;8.30;7.50;;;;;;;;;;5101298;28;20036;-72
2022/09/23 06:05:41;;;;;;;12.75;5.85;;;;;;;;;;5098327;28;20069;-73
2022/09/23 06:08:09;;;;;;;12.82;5.35;;;;;;;;;;5098767;28;20418;-73
2022/09/23 06:10:37;;;;;;;18.02;4.60;;;;;;;;;;5099717;28;20540;-73
2022/09/23 06:13:04;;;;;;;10.98;6.05;;;;;;;;;;5090349;28;20231;-73
2022/09/23 06:15:32;;;;;;;9.65;6.18;;;;;;;;;;5083011;28;20050;-73
2022/09/23 06:17:59;;;;;;;17.20;6.25;;;;;;;;;;5100141;28;20028;-73
2022/09/23 06:20:27;;;;;;;14.57;6.25;;;;;;;;;;5100721;28;20043;-73
2022/09/23 06:22:55;;;;;;;11.82;5.82;;;;;;;;;;5097206;28;20025;-73
2022/09/23 06:25:23;;;;;;;7.65;5.90;;;;;;;;;;5075047;28;20134;-73
2022/09/23 06:27:53;;;;;;;10.30;4.63;;;;;;;;;;5087353;28;20724;-73
2022/09/23 06:30:23;;;;;;;9.63;4.90;;;;;;;;;;5099632;28;20375;-73
2022/09/23 06:32:51;;;;;;;7.05;6.40;;;;;;;;;;5104450;28;20043;-72
2022/09/23 06:35:22;;;;;;;8.30;5.47;;;;;;;;;;5108602;28;20163;-73
2022/09/23 06:37:54;;;;;;;6.50;4.18;;;;;;;;;;5108291;28;20096;-72
2022/09/23 06:40:21;;;;;;;6.68;4.10;;;;;;;;;;5104324;28;20044;-73
2022/09/23 06:42:57;;;;;;;7.05;4.38;;;;;;;;;;5108052;28;20063;-73
2022/09/23 06:45:26;;;;;;;5.43;4.93;;;;;;;;;;5105751;28;20707;-73
2022/09/23 06:47:57;;;;;;;6.03;5.47;;;;;;;;;;5108380;27;20514;-73
2022/09/23 06:50:25;;;;;;;4.82;4.43;;;;;;;;;;5100260;28;20043;-73
2022/09/23 06:52:54;;;;;;;4.68;4.38;;;;;;;;;;5106076;28;20036;-72
2022/09/23 06:55:23;;;;;;;4.80;4.30;;;;;;;;;;5104754;28;20040;-72
2022/09/23 06:57:50;;;;;;;4.43;4.13;;;;;;;;;;5108133;28;20089;-73
2022/09/23 07:00:18;;;;;;;4.47;4.07;;;;;;;;;;5108328;28;20042;-73
2022/09/23 07:02:46;;;;;;;4.00;3.70;;;;;;;;;;5110420;28;20051;-74
2022/09/23 07:05:16;;;;;;;4.03;3.70;;;;;;;;;;5112995;28;20044;-75
2022/09/23 07:07:44;;;;;;;4.38;4.07;;;;;;;;;;5090548;28;20055;-73
2022/09/23 07:10:12;;;;;;;4.38;4.07;;;;;;;;;;5096572;28;20830;-74
2022/09/23 07:12:39;;;;;;;4.80;4.47;;;;;;;;;;5110884;28;20035;-72
2022/09/23 07:15:07;;;;;;;5.50;5.03;;;;;;;;;;5108378;28;20475;-72
2022/09/23 07:17:34;;;;;;;5.53;5.03;;;;;;;;;;5106799;28;20066;-72
2022/09/23 07:20:02;;;;;;;6.50;6.00;;;;;;;;;;5106494;28;20040;-72
2022/09/23 07:22:29;;;;;;;6.35;5.85;;;;;;;;;;5107270;28;20040;-73
2022/09/23 07:24:56;;;;;;;7.57;5.80;;;;;;;;;;5108230;28;20436;-73
2022/09/23 07:27:24;;;;;;;6.80;6.20;;;;;;;;;;5108853;28;20043;-73
2022/09/23 07:29:52;;;;;;;7.25;6.55;;;;;;;;;;5107499;28;20468;-76
2022/09/23 07:32:20;;;;;;;7.80;7.03;;;;;;;;;;5102621;28;20128;-73
2022/09/23 07:34:48;;;;;;;7.10;6.43;;;;;;;;;;5086734;28;20427;-73
2022/09/23 07:37:16;;;;;;;7.93;7.22;;;;;;;;;;5105253;28;20273;-74
2022/09/23 07:39:44;;;;;;;9.50;7.03;;;;;;;;;;5107191;28;20040;-72
2022/09/23 07:42:13;;;;;;;7.53;6.07;;;;;;;;;;5102393;28;20051;-73
2022/09/23 07:44:46;;;;;;;6.93;6.00;;;;;;;;;;5097869;28;21027;-74
2022/09/23 07:47:14;;;;;;;5.70;5.22;;;;;;;;;;5086568;28;20052;-73
2022/09/23 07:49:41;;;;;;;5.90;5.40;;;;;;;;;;5088696;28;20386;-73
2022/09/23 07:52:09;;;;;;;7.43;5.63;;;;;;;;;;5106568;28;20056;-73
2022/09/23 07:54:36;;;;;;;5.68;4.85;;;;;;;;;;5104964;28;20717;-73
2022/09/23 07:57:03;;;;;;;5.63;4.90;;;;;;;;;;5104739;28;20032;-75
2022/09/23 07:59:30;;;;;;;4.85;4.43;;;;;;;;;;5085249;28;20049;-74
2022/09/23 08:01:58;;;;;;;5.18;4.65;;;;;;;;;;5096737;28;20057;-73
2022/09/23 08:04:28;;;;;;;5.00;4.53;;;;;;;;;;5092032;28;20590;-74
2022/09/23 08:06:56;;;;;;;7.25;5.10;;;;;;;;;;5101533;28;20074;-72
2022/09/23 08:09:32;;;;;;;4.85;4.45;;;;;;;;;;5086998;28;20295;-71
2022/09/23 08:12:00;;;;;;;4.40;4.00;;;;;;;;;;5104158;28;20131;-72
2022/09/23 08:14:27;;;;;;;4.25;3.95;;;;;;;;;;5103506;28;20050;-72
2022/09/23 08:16:55;;;;;;;4.65;3.85;;;;;;;;;;5089494;28;20039;-72
2022/09/23 08:19:23;;;;;;;4.32;3.92;;;;;;;;;;5100143;27;20044;-73
2022/09/23 08:21:51;;;;;;;10.10;3.83;;;;;;;;;;5102918;28;20032;-72
2022/09/23 08:24:20;;;;;;;4.03;3.72;;;;;;;;;;5099772;28;20055;-74
2022/09/23 08:26:47;;;;;;;4.28;3.55;;;;;;;;;;5103830;27;20437;-74
2022/09/23 08:29:16;;;;;;;3.80;3.15;;;;;;;;;;5102526;27;20884;-73
2022/09/23 08:31:44;;;;;;;6.45;3.10;;;;;;;;;;5101838;28;20112;-72
2022/09/23 08:34:12;;;;;;;7.03;3.88;;;;;;;;;;5117187;27;20043;-74
2022/09/23 08:36:39;;;;;;;5.30;4.47;;;;;;;;;;5106737;27;20517;-73
2022/09/23 08:39:06;;;;;;;5.82;3.95;;;;;;;;;;5099476;28;20115;-74
2022/09/23 08:41:50;;;;;;;9.40;7.03;;;;;;;;;;5096400;28;20089;-73
2022/09/23 08:44:31;;;;;;;3.40;3.10;;;;;;;;;;5094712;28;20047;-74
2022/09/23 08:47:11;;;;;;;3.78;3.47;;;;;;;;;;5092758;27;20062;-74
2022/09/23 08:49:47;;;;;;;5.15;3.83;;;;;;;;;;5097801;28;20422;-73
2022/09/23 08:52:20;;;;;;;4.95;3.10;;;;;;;;;;5101211;28;20086;-74
2022/09/23 08:54:47;;;;;;;4.95;3.53;;;;;;;;;;5099999;27;20035;-73
2022/09/23 08:57:44;;;;;;;3.10;2.90;;;;;;;;;;5089644;28;20068;-73
2022/09/23 09:00:35;;;;;;;2.80;2.60;;;;;;;;;;5094670;28;20112;-72
2022/09/23 09:03:06;;;;;;;2.70;2.50;;;;;;;;;;5093545;28;20043;-72
2022/09/23 09:05:34;;;;;;;3.30;3.00;;;;;;;;;;5093069;28;20661;-73
2022/09/23 09:08:02;;;;;;;3.03;2.83;;;;;;;;;;5101432;28;20043;-72
2022/09/23 09:10:34;;;;;;;2.72;2.53;;;;;;;;;;5102135;28;20071;-73
2022/09/23 09:13:02;;;;;;;;;;;;;;;;;;5100542;28;20047;-73
2022/09/23 09:15:29;;;;;;;2.70;2.50;;;;;;;;;;5090535;28;19928;-73
2022/09/23 09:18:00;;;;;;;2.90;2.70;;;;;;;;;;5089220;28;20345;-72
2022/09/23 09:20:41;;;;;;;2.88;2.45;;;;;;;;;;5108003;28;20038;-73
2022/09/23 09:23:19;;;;;;;2.80;2.53;;;;;;;;;;5100074;28;20043;-73
2022/09/23 09:25:54;;;;;;;2.70;2.50;;;;;;;;;;5102762;28;20499;-73
2022/09/23 09:28:39;;;;;;;2.63;2.50;;;;;;;;;;5081959;28;20449;-72
2022/09/23 09:31:20;;;;;;;4.32;2.72;;;;;;;;;;5090019;28;20051;-73
2022/09/23 09:33:51;;;;;;;2.90;2.60;;;;;;;;;;5094012;28;20048;-73
2022/09/23 09:36:25;;;;;;;2.88;2.67;;;;;;;;;;5065287;28;20088;-74
2022/09/23 09:38:57;;;;;;;2.35;2.25;;;;;;;;;;5082665;28;20065;-73
2022/09/23 09:41:26;;;;;;;3.97;2.90;;;;;;;;;;5100943;28;20062;-74
2022/09/23 09:43:58;;;;;;;2.70;2.50;;;;;;;;;;5101627;28;20276;-73
2022/09/23 09:46:25;;;;;;;2.83;2.63;;;;;;;;;;5103939;28;20062;-73
2022/09/23 09:49:01;;;;;;;2.58;2.13;;;;;;;;;;5101531;28;20047;-74
2022/09/23 09:51:29;;;;;;;6.05;5.10;;;;;;;;;;5102274;28;20153;-73
2022/09/23 09:54:16;;;;;;;2.97;2.00;;;;;;;;;;5102123;28;20040;-73
2022/09/23 09:56:44;;;;;;;2.38;2.17;;;;;;;;;;5099860;28;20044;-73
2022/09/23 09:59:16;;;;;;;2.90;2.70;;;;;;;;;;5103135;28;20455;-72
2022/09/23 10:01:44;;;;;;;2.40;2.28;;;;;;;;;;5103970;28;20063;-73
2022/09/23 10:04:23;;;;;;;3.42;3.17;;;;;;;;;;5105204;28;20201;-73
2022/09/23 10:07:06;;;;;;;4.53;2.83;;;;;;;;;;5105524;28;20043;-72
2022/09/23 10:09:38;;;;;;;3.03;2.78;;;;;;;;;;5105123;28;20259;-73
2022/09/23 10:12:14;;;;;;;2.90;2.70;;;;;;;;;;5109206;28;20051;-72
2022/09/23 10:14:42;;;;;;;2.60;2.50;;;;;;;;;;5107447;28;20054;-73
2022/09/23 10:17:23;;;;;;;3.72;2.78;;;;;;;;;;5095976;28;20046;-73
2022/09/23 10:19:59;;;;;;;3.03;2.72;;;;;;;;;;5052779;28;20052;-64
2022/09/23 10:22:33;;;;;;;3.35;2.33;;;;;;;;;;5086497;28;20054;-72
2022/09/23 10:25:04;;;;;;;2.85;2.70;;;;;;;;;;5067453;28;20148;-73
2022/09/23 10:27:34;;;;;;;2.70;2.60;;;;;;;;;;5081799;28;20376;-72
2022/09/23 10:30:04;;;;;;;2.20;2.10;;;;;;;;;;5117112;27;20112;-72
2022/09/23 10:32:37;;;;;;;4.55;3.00;;;;;;;;;;5103894;27;20035;-72
2022/09/23 10:35:07;;;;;;;2.70;2.55;;;;;;;;;;5110037;27;20254;-72
2022/09/23 10:37:37;;;;;;;2.58;2.40;;;;;;;;;;5116720;27;20482;-70
2022/09/23 10:49:11;;;;;;;2.88;2.67;;;;;;;;;;5100983;28;20062;-73
2022/09/23 10:51:46;;;;;;;3.90;2.33;;;;;;;;;;5106362;28;20055;-73
2022/09/23 10:54:32;;;;;;;3.75;2.33;;;;;;;;;;5105680;28;20075;-72
2022/09/23 10:57:39;;;;;;;2.50;2.40;;;;;;;;;;5098221;28;20638;-73
2022/09/23 11:00:21;;;;;;;2.97;2.67;;;;;;;;;;5077105;28;20522;-74
2022/09/23 11:02:52;;;;;;;2.35;2.22;;;;;;;;;;5105038;28;20039;-74
2022/09/23 11:05:26;;;;;;;2.42;2.22;;;;;;;;;;5105850;28;20051;-73
2022/09/23 11:08:07;;;;;;;2.53;2.33;;;;;;;;;;5106812;28;20058;-74
2022/09/23 11:10:48;;;;;;;2.55;2.35;;;;;;;;;;5106246;28;20044;-72
2022/09/23 11:13:25;;;;;;;2.63;2.42;;;;;;;;;;5103644;28;20641;-72
2022/09/23 11:16:12;;;;;;;3.30;2.22;;;;;;;;;;5087584;28;20052;-71
2022/09/23 11:18:53;;;;;;;2.20;2.00;;;;;;;;;;5108205;28;20032;-71
2022/09/23 11:21:26;;;;;;;1.88;1.60;;;;;;;;;;5105203;28;20047;-71
2022/09/23 11:24:01;;;;;;;1.70;1.60;;;;;;;;;;5105972;28;20051;-71
2022/09/23 11:26:30;;;;;;;1.27;1.17;;;;;;;;;;5106197;28;20040;-72
2022/09/23 11:29:13;;;;;;;3.10;2.20;;;;;;;;;;5106547;28;20058;-71
2022/09/23 11:31:46;;;;;;;1.80;1.70;;;;;;;;;;5106305;28;20292;-72
2022/09/23 11:34:33;;;;;;;3.13;1.92;;;;;;;;;;5104123;28;20498;-72
2022/09/23 11:37:11;;;;;;;1.90;1.80;;;;;;;;;;5105301;28;20635;-71
2022/09/23 11:39:56;;;;;;;2.20;1.67;;;;;;;;;;5031587;28;20057;-78
2022/09/23 11:42:29;;;;;;;1.60;1.50;;;;;;;;;;5047036;28;20041;-78
2022/09/23 11:45:04;;;;;;;1.45;1.35;;;;;;;;;;5034752;28;20045;-78
2022/09/23 11:47:35;;;;;;;1.63;1.42;;;;;;;;;;5029357;28;20467;-78
2022/09/23 11:50:15;;;;;;;1.77;1.67;;;;;;;;;;5028693;28;20056;-78
2022/09/23 11:52:45;;;;;;;0.80;0.80;;;;;;;;;;5029374;28;20594;-78
2022/09/23 11:55:23;;;;;;;1.10;1.10;;;;;;;;;;5011828;28;20049;-78
2022/09/23 11:57:55;;;;;;;1.00;1.00;;;;;;;;;;5029745;28;20065;-78
2022/09/23 12:00:27;;;;;;;1.33;1.08;;;;;;;;;;5011971;28;20045;-78
2022/09/23 12:03:03;;;;;;;1.10;1.00;;;;;;;;;;4993986;28;20509;-77
2022/09/23 12:05:36;;;;;;;2.35;2.15;;;;;;;;;;5009790;28;20470;-78
2022/09/23 12:08:07;;;;;;;1.10;1.10;;;;;;;;;;4994512;28;20107;-78
2022/09/23 12:10:51;;;;;;;0.90;0.90;;;;;;;;;;5028764;28;20045;-79
2022/09/23 12:13:21;;;;;;;1.00;1.00;;;;;;;;;;5009315;28;20053;-78
2022/09/23 12:16:09;;;;;;;1.58;1.48;;;;;;;;;;5025479;28;20049;-78
2022/09/23 12:18:41;;;;;;;1.10;1.10;;;;;;;;;;5028351;28;20052;-78
2022/09/23 12:21:09;;;;;;;0.90;0.90;;;;;;;;;;5010575;28;20045;-79
2022/09/23 12:24:14;;;;;;;1.00;1.00;;;;;;;;;;5029204;28;20510;-78
2022/09/23 12:26:49;;;;;;;1.00;1.00;;;;;;;;;;5028431;28;20058;-78
2022/09/23 12:29:16;;;;;;;0.88;0.88;;;;;;;;;;5027857;28;20731;-78
2022/09/23 12:31:45;;;;;;;0.90;0.90;;;;;;;;;;5010740;28;20073;-79
2022/09/23 12:34:27;;;;;;;1.42;1.23;;;;;;;;;;5027944;28;20602;-79
2022/09/23 12:37:01;;;;;;;1.17;1.07;;;;;;;;;;5027481;28;20128;-79
2022/09/23 12:39:30;;;;;;;1.35;1.25;;;;;;;;;;5011525;28;20044;-79
2022/09/23 12:42:00;;;;;;;1.25;1.23;;;;;;;;;;5028435;28;20037;-78
2022/09/23 12:44:36;;;;;;;1.15;1.15;;;;;;;;;;5030316;28;20037;-79
2022/09/23 12:47:27;;;;;;;3.05;1.20;;;;;;;;;;5030089;28;20400;-79
2022/09/23 12:49:55;;;;;;;1.52;1.25;;;;;;;;;;5027556;28;20037;-78
2022/09/23 12:52:33;;;;;;;1.40;1.30;;;;;;;;;;5028189;28;20089;-78
2022/09/23 12:55:20;;;;;;;1.00;1.00;;;;;;;;;;5026745;28;20046;-79
2022/09/23 12:57:48;;;;;;;2.22;1.10;;;;;;;;;;5008280;28;20546;-77
2022/09/23 13:00:21;;;;;;;1.40;1.10;;;;;;;;;;5025130;28;20077;-78
2022/09/23 13:08:44;;;;;;;6.70;5.57;;;;;;;;;;5027734;28;20088;-78
2022/09/23 13:11:24;;;;;;;1.63;1.52;;;;;;;;;;5011565;28;20133;-78
2022/09/23 13:13:54;;;;;;;1.40;1.30;;;;;;;;;;5028285;28;20115;-78
2022/09/23 13:16:25;;;;;;;1.00;1.00;;;;;;;;;;5009548;28;20061;-77
2022/09/23 13:18:53;;;;;;;1.08;1.08;;;;;;;;;;5028165;28;20049;-82
2022/09/23 13:21:39;;;;;;;1.05;1.05;;;;;;;;;;5026977;28;20065;-76
2022/09/23 13:24:16;;;;;;;1.23;1.05;;;;;;;;;;5025983;28;20046;-76
2022/09/23 13:26:45;;;;;;;1.10;1.10;;;;;;;;;;5010923;28;20069;-79
2022/09/23 13:29:42;;;;;;;1.42;1.33;;;;;;;;;;5012008;28;20141;-79
2022/09/23 13:32:16;;;;;;;1.40;1.30;;;;;;;;;;5012118;28;20073;-78
2022/09/23 13:34:46;;;;;;;1.17;1.10;;;;;;;;;;5009064;28;20045;-77
2022/09/23 13:37:18;;;;;;;1.33;1.23;;;;;;;;;;4994004;28;20048;-77
2022/09/23 13:39:49;;;;;;;1.50;1.10;;;;;;;;;;5026897;28;20045;-77
2022/09/23 13:42:36;;;;;;;1.17;1.17;;;;;;;;;;5026053;28;20140;-78
2022/09/23 13:45:04;;;;;;;1.52;1.20;;;;;;;;;;5018832;28;20052;-78
2022/09/23 13:47:33;;;;;;;2.38;0.90;;;;;;;;;;5027571;28;20223;-77
2022/09/23 13:50:00;;;;;;;0.82;0.82;;;;;;;;;;5026681;28;20049;-78
2022/09/23 13:52:31;;;;;;;1.00;1.00;;;;;;;;;;5007980;28;20076;-78
2022/09/23 13:54:58;;;;;;;0.77;0.77;;;;;;;;;;5027071;28;20067;-77
2022/09/23 13:57:28;;;;;;;2.35;0.80;;;;;;;;;;5010538;28;20525;-78
2022/09/23 14:00:02;;;;;;;2.78;0.73;;;;;;;;;;5026206;28;20399;-77
2022/09/23 14:02:30;;;;;;;1.20;0.80;;;;;;;;;;5009348;28;20045;-77
2022/09/23 14:04:57;;;;;;;1.88;0.90;;;;;;;;;;5026963;28;20068;-78
2022/09/23 14:07:25;;;;;;;0.93;0.93;;;;;;;;;;5027893;28;20069;-78
2022/09/23 14:09:54;;;;;;;1.00;1.00;;;;;;;;;;5010246;28;20191;-78
2022/09/23 14:12:21;;;;;;;1.33;0.90;;;;;;;;;;5029166;28;20077;-78
2022/09/23 14:14:52;;;;;;;2.67;0.70;;;;;;;;;;5027980;28;20045;-77
2022/09/23 14:17:21;;;;;;;2.00;0.77;;;;;;;;;;5027700;28;20056;-78
2022/09/23 14:19:49;;;;;;;1.05;1.05;;;;;;;;;;5024288;28;20471;-77
2022/09/23 14:22:23;;;;;;;2.05;1.20;;;;;;;;;;5030284;28;20041;-78
2022/09/23 14:24:51;;;;;;;1.17;1.08;;;;;;;;;;4995301;28;20518;-78
2022/09/23 14:27:23;;;;;;;1.00;1.00;;;;;;;;;;5012356;28;20053;-77
2022/09/23 14:29:51;;;;;;;3.33;1.35;;;;;;;;;;5032233;28;20041;-78
2022/09/23 14:32:19;;;;;;;1.20;1.20;;;;;;;;;;5028677;28;20099;-78
2022/09/23 14:35:00;;;;;;;2.80;1.35;;;;;;;;;;5011993;28;20053;-78
2022/09/23 14:40:27;;;;;;;0.93;0.93;;;;;;;;;;5029934;28;20057;-78
2022/09/23 14:42:57;;;;;;;1.30;1.30;;;;;;;;;;5030030;28;20046;-79
2022/09/23 14:45:26;;;;;;;1.70;1.20;;;;;;;;;;5013354;28;20145;-78
2022/09/23 14:47:58;;;;;;;2.20;1.50;;;;;;;;;;5031170;28;20046;-78
2022/09/23 14:50:36;;;;;;;2.78;1.73;;;;;;;;;;5034836;28;20080;-78
2022/09/23 14:53:04;;;;;;;2.42;1.17;;;;;;;;;;5031797;28;20403;-78
2022/09/23 14:55:31;;;;;;;1.40;1.00;;;;;;;;;;5014952;28;20091;-79
2022/09/23 14:58:15;;;;;;;1.40;1.30;;;;;;;;;;5031512;28;20395;-78
2022/09/23 15:00:59;;;;;;;1.00;1.00;;;;;;;;;;5032985;28;20037;-78
2022/09/23 15:03:27;;;;;;;0.90;0.90;;;;;;;;;;5033622;28;20041;-79
2022/09/23 15:06:00;;;;;;;1.55;1.30;;;;;;;;;;5032757;28;20483;-78
2022/09/23 15:08:34;;;;;;;2.55;1.23;;;;;;;;;;5033060;28;20053;-78
2022/09/23 15:11:04;;;;;;;1.45;1.40;;;;;;;;;;5032085;28;20482;-78
2022/09/23 15:13:44;;;;;;;1.20;1.10;;;;;;;;;;5031008;28;20037;-79
2022/09/23 15:16:13;;;;;;;2.88;1.30;;;;;;;;;;5031606;28;20449;-78
2022/09/23 15:18:42;;;;;;;1.77;1.67;;;;;;;;;;5031071;28;20130;-78
2022/09/23 15:21:18;;;;;;;6.53;1.50;;;;;;;;;;5031563;28;20132;-79
2022/09/23 15:23:50;;;;;;;1.60;1.50;;;;;;;;;;5031993;28;20395;-79
2022/09/23 15:26:17;;;;;;;;;;;;;;;;;;5014028;28;20095;-79